SE-0025 weather

Flykälens flygfält
Jämtlande län, Sweden

Public forecast

Using degrees Celsius for public forecast. Weather courtesy of forecast.io.

METAR (pilot weather report)

Closest report is Åre Östersund Airport, 42.9 nm (79.4 km) SSW. Retrieved 2019/07/17 18:20 UTC (0 seconds ago):

ESNZ 171820Z 08006KT 040V110 CAVOK 17/10 Q1010

TAF (pilot weather forecast)

Forecast is more than 12 hours old.

Closest forecast is Kramfors Sollefteå Airport, 88.2 nm (163.3 km) ESE. Retrieved 2015/10/08 12:00 UTC (4 years ago):

TAF ESNK 081130Z 0812/0824 18005KT CAVOK PROB40 0820/0824 4000 BR